sensor_id;sensor_type;location;lat;lon;timestamp;P1;durP1;ratioP1;P2;durP2;ratioP2
8013;SDS011;4052;50.500;8.660;2023-02-13T00:01:22;3.20;;;2.50;;
8013;SDS011;4052;50.500;8.660;2023-02-13T00:03:48;3.83;;;2.27;;
8013;SDS011;4052;50.500;8.660;2023-02-13T00:06:14;4.53;;;2.43;;
8013;SDS011;4052;50.500;8.660;2023-02-13T00:08:40;2.73;;;2.30;;
8013;SDS011;4052;50.500;8.660;2023-02-13T00:11:06;4.53;;;3.47;;
8013;SDS011;4052;50.500;8.660;2023-02-13T00:13:33;5.40;;;2.53;;
8013;SDS011;4052;50.500;8.660;2023-02-13T00:16:01;5.57;;;2.87;;
8013;SDS011;4052;50.500;8.660;2023-02-13T00:18:27;5.53;;;3.03;;
8013;SDS011;4052;50.500;8.660;2023-02-13T00:21:08;9.00;;;3.20;;
8013;SDS011;4052;50.500;8.660;2023-02-13T00:23:35;3.60;;;2.30;;
8013;SDS011;4052;50.500;8.660;2023-02-13T00:26:05;8.27;;;3.00;;
8013;SDS011;4052;50.500;8.660;2023-02-13T00:28:32;4.13;;;3.73;;
8013;SDS011;4052;50.500;8.660;2023-02-13T00:31:02;10.17;;;4.37;;
8013;SDS011;4052;50.500;8.660;2023-02-13T00:33:28;4.53;;;2.87;;
8013;SDS011;4052;50.500;8.660;2023-02-13T00:36:03;8.63;;;3.90;;
8013;SDS011;4052;50.500;8.660;2023-02-13T00:38:29;7.67;;;3.60;;
8013;SDS011;4052;50.500;8.660;2023-02-13T00:40:56;5.50;;;3.17;;
8013;SDS011;4052;50.500;8.660;2023-02-13T00:43:22;6.10;;;2.93;;
8013;SDS011;4052;50.500;8.660;2023-02-13T00:45:48;7.33;;;3.60;;
8013;SDS011;4052;50.500;8.660;2023-02-13T00:48:14;4.70;;;2.97;;
8013;SDS011;4052;50.500;8.660;2023-02-13T00:50:40;5.67;;;3.47;;
8013;SDS011;4052;50.500;8.660;2023-02-13T00:53:06;7.27;;;4.00;;
8013;SDS011;4052;50.500;8.660;2023-02-13T00:55:33;7.43;;;3.43;;
8013;SDS011;4052;50.500;8.660;2023-02-13T00:57:59;6.10;;;3.90;;
8013;SDS011;4052;50.500;8.660;2023-02-13T01:00:26;4.43;;;3.27;;
8013;SDS011;4052;50.500;8.660;2023-02-13T01:02:52;5.90;;;3.30;;
8013;SDS011;4052;50.500;8.660;2023-02-13T01:05:18;3.03;;;2.57;;
8013;SDS011;4052;50.500;8.660;2023-02-13T01:07:44;5.47;;;3.43;;
8013;SDS011;4052;50.500;8.660;2023-02-13T01:10:10;8.90;;;3.50;;
8013;SDS011;4052;50.500;8.660;2023-02-13T01:12:37;4.13;;;3.00;;
8013;SDS011;4052;50.500;8.660;2023-02-13T01:15:03;5.10;;;3.57;;
8013;SDS011;4052;50.500;8.660;2023-02-13T01:17:29;8.00;;;3.50;;
8013;SDS011;4052;50.500;8.660;2023-02-13T01:19:57;4.23;;;2.60;;
8013;SDS011;4052;50.500;8.660;2023-02-13T01:22:23;4.93;;;3.37;;
8013;SDS011;4052;50.500;8.660;2023-02-13T01:24:49;8.47;;;3.50;;
8013;SDS011;4052;50.500;8.660;2023-02-13T01:27:15;5.50;;;3.27;;
8013;SDS011;4052;50.500;8.660;2023-02-13T01:29:42;5.30;;;3.60;;
8013;SDS011;4052;50.500;8.660;2023-02-13T01:32:08;6.00;;;3.40;;
8013;SDS011;4052;50.500;8.660;2023-02-13T01:34:34;5.20;;;3.20;;
8013;SDS011;4052;50.500;8.660;2023-02-13T01:37:00;4.17;;;2.93;;
8013;SDS011;4052;50.500;8.660;2023-02-13T01:39:26;5.83;;;3.53;;
8013;SDS011;4052;50.500;8.660;2023-02-13T01:41:52;4.57;;;3.07;;
8013;SDS011;4052;50.500;8.660;2023-02-13T01:47:03;4.20;;;3.37;;
8013;SDS011;4052;50.500;8.660;2023-02-13T01:49:29;8.53;;;3.47;;
8013;SDS011;4052;50.500;8.660;2023-02-13T01:51:57;3.97;;;2.63;;
8013;SDS011;4052;50.500;8.660;2023-02-13T01:54:25;6.97;;;2.73;;
8013;SDS011;4052;50.500;8.660;2023-02-13T01:56:56;6.40;;;3.30;;
8013;SDS011;4052;50.500;8.660;2023-02-13T01:59:25;7.83;;;2.97;;
8013;SDS011;4052;50.500;8.660;2023-02-13T02:01:52;6.07;;;3.40;;
8013;SDS011;4052;50.500;8.660;2023-02-13T02:04:19;3.33;;;3.00;;
8013;SDS011;4052;50.500;8.660;2023-02-13T02:06:51;7.70;;;3.03;;
8013;SDS011;4052;50.500;8.660;2023-02-13T02:09:20;2.87;;;2.50;;
8013;SDS011;4052;50.500;8.660;2023-02-13T02:11:52;3.50;;;2.87;;
8013;SDS011;4052;50.500;8.660;2023-02-13T02:14:20;6.60;;;3.40;;
8013;SDS011;4052;50.500;8.660;2023-02-13T02:16:47;6.87;;;3.73;;
8013;SDS011;4052;50.500;8.660;2023-02-13T02:22:14;3.33;;;2.67;;
8013;SDS011;4052;50.500;8.660;2023-02-13T02:24:55;6.47;;;3.50;;
8013;SDS011;4052;50.500;8.660;2023-02-13T02:27:34;5.03;;;2.87;;
8013;SDS011;4052;50.500;8.660;2023-02-13T02:32:41;4.97;;;2.90;;
8013;SDS011;4052;50.500;8.660;2023-02-13T02:35:15;6.30;;;3.47;;
8013;SDS011;4052;50.500;8.660;2023-02-13T02:48:14;10.40;;;2.87;;
8013;SDS011;4052;50.500;8.660;2023-02-13T02:51:04;4.47;;;2.77;;
8013;SDS011;4052;50.500;8.660;2023-02-13T02:54:15;3.50;;;2.80;;
8013;SDS011;4052;50.500;8.660;2023-02-13T02:56:36;5.50;;;2.67;;
8013;SDS011;4052;50.500;8.660;2023-02-13T02:59:14;4.97;;;3.27;;
8013;SDS011;4052;50.500;8.660;2023-02-13T03:02:01;2.73;;;2.47;;
8013;SDS011;4052;50.500;8.660;2023-02-13T03:04:47;5.27;;;3.23;;
8013;SDS011;4052;50.500;8.660;2023-02-13T03:07:34;5.53;;;3.13;;
8013;SDS011;4052;50.500;8.660;2023-02-13T03:10:04;6.30;;;3.17;;
8013;SDS011;4052;50.500;8.660;2023-02-13T03:12:57;5.47;;;2.97;;
8013;SDS011;4052;50.500;8.660;2023-02-13T03:15:45;4.27;;;2.93;;
8013;SDS011;4052;50.500;8.660;2023-02-13T03:18:31;4.00;;;2.53;;
8013;SDS011;4052;50.500;8.660;2023-02-13T03:21:20;4.57;;;2.00;;
8013;SDS011;4052;50.500;8.660;2023-02-13T03:24:22;4.57;;;2.13;;
8013;SDS011;4052;50.500;8.660;2023-02-13T03:34:34;7.50;;;3.37;;
8013;SDS011;4052;50.500;8.660;2023-02-13T03:37:30;6.83;;;2.90;;
8013;SDS011;4052;50.500;8.660;2023-02-13T03:42:48;4.10;;;3.20;;
8013;SDS011;4052;50.500;8.660;2023-02-13T03:45:20;6.90;;;4.20;;
8013;SDS011;4052;50.500;8.660;2023-02-13T03:48:06;7.67;;;4.23;;
8013;SDS011;4052;50.500;8.660;2023-02-13T03:50:53;5.40;;;2.43;;
8013;SDS011;4052;50.500;8.660;2023-02-13T03:53:21;5.10;;;3.13;;
8013;SDS011;4052;50.500;8.660;2023-02-13T03:55:47;6.57;;;2.77;;
8013;SDS011;4052;50.500;8.660;2023-02-13T03:58:36;7.47;;;2.97;;
8013;SDS011;4052;50.500;8.660;2023-02-13T04:01:25;5.47;;;2.63;;
8013;SDS011;4052;50.500;8.660;2023-02-13T04:03:56;4.90;;;2.60;;
8013;SDS011;4052;50.500;8.660;2023-02-13T04:06:26;6.40;;;3.37;;
8013;SDS011;4052;50.500;8.660;2023-02-13T04:08:52;5.13;;;2.83;;
8013;SDS011;4052;50.500;8.660;2023-02-13T04:14:12;7.90;;;4.07;;
8013;SDS011;4052;50.500;8.660;2023-02-13T04:16:40;7.37;;;3.63;;
8013;SDS011;4052;50.500;8.660;2023-02-13T04:19:07;4.93;;;2.93;;
8013;SDS011;4052;50.500;8.660;2023-02-13T04:21:35;7.30;;;3.77;;
8013;SDS011;4052;50.500;8.660;2023-02-13T04:24:01;11.37;;;4.40;;
8013;SDS011;4052;50.500;8.660;2023-02-13T04:26:38;6.93;;;4.43;;
8013;SDS011;4052;50.500;8.660;2023-02-13T04:29:05;8.20;;;3.53;;
8013;SDS011;4052;50.500;8.660;2023-02-13T04:31:31;7.33;;;4.80;;
8013;SDS011;4052;50.500;8.660;2023-02-13T04:33:57;10.67;;;4.07;;
8013;SDS011;4052;50.500;8.660;2023-02-13T04:36:23;7.67;;;3.43;;
8013;SDS011;4052;50.500;8.660;2023-02-13T04:38:49;8.77;;;4.43;;
8013;SDS011;4052;50.500;8.660;2023-02-13T04:41:15;4.03;;;3.23;;
8013;SDS011;4052;50.500;8.660;2023-02-13T04:43:42;9.10;;;4.00;;
8013;SDS011;4052;50.500;8.660;2023-02-13T04:46:08;8.03;;;4.47;;
8013;SDS011;4052;50.500;8.660;2023-02-13T04:48:34;5.67;;;2.90;;
8013;SDS011;4052;50.500;8.660;2023-02-13T04:51:00;5.53;;;3.10;;
8013;SDS011;4052;50.500;8.660;2023-02-13T04:53:26;5.57;;;4.07;;
8013;SDS011;4052;50.500;8.660;2023-02-13T04:55:52;8.70;;;3.80;;
8013;SDS011;4052;50.500;8.660;2023-02-13T04:58:18;9.60;;;2.93;;
8013;SDS011;4052;50.500;8.660;2023-02-13T05:00:44;3.67;;;2.80;;
8013;SDS011;4052;50.500;8.660;2023-02-13T05:03:11;5.73;;;3.20;;
8013;SDS011;4052;50.500;8.660;2023-02-13T05:05:38;7.83;;;3.30;;
8013;SDS011;4052;50.500;8.660;2023-02-13T05:08:05;5.47;;;3.40;;
8013;SDS011;4052;50.500;8.660;2023-02-13T05:10:31;3.43;;;2.23;;
8013;SDS011;4052;50.500;8.660;2023-02-13T05:12:57;11.97;;;3.67;;
8013;SDS011;4052;50.500;8.660;2023-02-13T05:15:23;7.70;;;3.73;;
8013;SDS011;4052;50.500;8.660;2023-02-13T05:17:50;7.73;;;3.67;;
8013;SDS011;4052;50.500;8.660;2023-02-13T05:20:16;6.13;;;3.10;;
8013;SDS011;4052;50.500;8.660;2023-02-13T05:22:46;5.93;;;3.30;;
8013;SDS011;4052;50.500;8.660;2023-02-13T05:25:32;5.73;;;2.80;;
8013;SDS011;4052;50.500;8.660;2023-02-13T05:27:58;4.70;;;2.07;;
8013;SDS011;4052;50.500;8.660;2023-02-13T05:30:24;5.13;;;2.67;;
8013;SDS011;4052;50.500;8.660;2023-02-13T05:32:51;11.03;;;5.67;;
8013;SDS011;4052;50.500;8.660;2023-02-13T05:35:19;7.03;;;3.03;;
8013;SDS011;4052;50.500;8.660;2023-02-13T05:37:45;6.10;;;3.87;;
8013;SDS011;4052;50.500;8.660;2023-02-13T05:40:12;5.33;;;3.23;;
8013;SDS011;4052;50.500;8.660;2023-02-13T05:42:38;8.57;;;4.73;;
8013;SDS011;4052;50.500;8.660;2023-02-13T05:45:05;8.93;;;3.00;;
8013;SDS011;4052;50.500;8.660;2023-02-13T05:47:31;6.17;;;3.20;;
8013;SDS011;4052;50.500;8.660;2023-02-13T05:49:57;6.43;;;3.63;;
8013;SDS011;4052;50.500;8.660;2023-02-13T05:52:24;20.63;;;5.57;;
8013;SDS011;4052;50.500;8.660;2023-02-13T05:54:50;9.30;;;5.40;;
8013;SDS011;4052;50.500;8.660;2023-02-13T05:57:16;16.63;;;8.33;;
8013;SDS011;4052;50.500;8.660;2023-02-13T05:59:42;13.93;;;5.77;;
8013;SDS011;4052;50.500;8.660;2023-02-13T06:02:08;8.97;;;4.83;;
8013;SDS011;4052;50.500;8.660;2023-02-13T06:04:34;7.17;;;2.90;;
8013;SDS011;4052;50.500;8.660;2023-02-13T06:07:01;5.23;;;3.73;;
8013;SDS011;4052;50.500;8.660;2023-02-13T06:09:27;5.77;;;2.83;;
8013;SDS011;4052;50.500;8.660;2023-02-13T06:11:53;4.67;;;2.57;;
8013;SDS011;4052;50.500;8.660;2023-02-13T06:14:19;2.40;;;2.20;;
8013;SDS011;4052;50.500;8.660;2023-02-13T06:16:45;4.13;;;2.87;;
8013;SDS011;4052;50.500;8.660;2023-02-13T06:19:11;10.53;;;4.43;;
8013;SDS011;4052;50.500;8.660;2023-02-13T06:21:37;5.33;;;3.20;;
8013;SDS011;4052;50.500;8.660;2023-02-13T06:24:04;8.10;;;3.97;;
8013;SDS011;4052;50.500;8.660;2023-02-13T06:26:31;4.57;;;3.37;;
8013;SDS011;4052;50.500;8.660;2023-02-13T06:28:57;10.87;;;4.20;;
8013;SDS011;4052;50.500;8.660;2023-02-13T06:31:23;7.97;;;3.33;;
8013;SDS011;4052;50.500;8.660;2023-02-13T06:33:49;5.70;;;2.53;;
8013;SDS011;4052;50.500;8.660;2023-02-13T06:36:15;4.07;;;3.17;;
8013;SDS011;4052;50.500;8.660;2023-02-13T06:38:41;3.73;;;2.70;;
8013;SDS011;4052;50.500;8.660;2023-02-13T06:41:07;4.57;;;2.63;;
8013;SDS011;4052;50.500;8.660;2023-02-13T06:43:34;2.50;;;2.10;;
8013;SDS011;4052;50.500;8.660;2023-02-13T06:46:03;5.43;;;3.07;;
8013;SDS011;4052;50.500;8.660;2023-02-13T06:48:29;4.70;;;3.30;;
8013;SDS011;4052;50.500;8.660;2023-02-13T06:50:55;4.70;;;3.00;;
8013;SDS011;4052;50.500;8.660;2023-02-13T06:53:22;12.20;;;3.87;;
8013;SDS011;4052;50.500;8.660;2023-02-13T06:55:52;5.63;;;3.37;;
8013;SDS011;4052;50.500;8.660;2023-02-13T06:58:19;4.13;;;2.03;;
8013;SDS011;4052;50.500;8.660;2023-02-13T07:00:45;3.17;;;2.93;;
8013;SDS011;4052;50.500;8.660;2023-02-13T07:03:11;6.23;;;3.07;;
8013;SDS011;4052;50.500;8.660;2023-02-13T07:05:38;5.43;;;2.27;;
8013;SDS011;4052;50.500;8.660;2023-02-13T07:08:05;8.00;;;4.30;;
8013;SDS011;4052;50.500;8.660;2023-02-13T07:10:31;5.77;;;3.03;;
8013;SDS011;4052;50.500;8.660;2023-02-13T07:12:58;5.83;;;3.43;;
8013;SDS011;4052;50.500;8.660;2023-02-13T07:15:24;3.37;;;2.17;;
8013;SDS011;4052;50.500;8.660;2023-02-13T07:17:56;3.27;;;2.60;;
8013;SDS011;4052;50.500;8.660;2023-02-13T07:20:23;3.27;;;2.53;;
8013;SDS011;4052;50.500;8.660;2023-02-13T07:22:49;4.37;;;3.93;;
8013;SDS011;4052;50.500;8.660;2023-02-13T07:25:16;5.57;;;3.20;;
8013;SDS011;4052;50.500;8.660;2023-02-13T07:27:42;5.40;;;2.47;;
8013;SDS011;4052;50.500;8.660;2023-02-13T07:30:09;5.17;;;3.17;;
8013;SDS011;4052;50.500;8.660;2023-02-13T07:32:35;4.50;;;2.23;;
8013;SDS011;4052;50.500;8.660;2023-02-13T07:35:01;7.73;;;2.53;;
8013;SDS011;4052;50.500;8.660;2023-02-13T07:37:28;11.60;;;3.97;;
8013;SDS011;4052;50.500;8.660;2023-02-13T07:39:54;6.53;;;2.90;;
8013;SDS011;4052;50.500;8.660;2023-02-13T07:42:21;7.00;;;4.13;;
8013;SDS011;4052;50.500;8.660;2023-02-13T07:44:47;3.13;;;2.83;;
8013;SDS011;4052;50.500;8.660;2023-02-13T07:47:13;7.37;;;2.83;;
8013;SDS011;4052;50.500;8.660;2023-02-13T07:49:39;4.03;;;3.23;;
8013;SDS011;4052;50.500;8.660;2023-02-13T07:52:05;8.07;;;2.87;;
8013;SDS011;4052;50.500;8.660;2023-02-13T07:54:32;7.00;;;3.93;;
8013;SDS011;4052;50.500;8.660;2023-02-13T07:56:58;4.50;;;2.80;;
8013;SDS011;4052;50.500;8.660;2023-02-13T07:59:24;5.13;;;2.47;;
8013;SDS011;4052;50.500;8.660;2023-02-13T08:01:50;6.43;;;3.73;;
8013;SDS011;4052;50.500;8.660;2023-02-13T08:04:16;5.90;;;3.27;;
8013;SDS011;4052;50.500;8.660;2023-02-13T08:06:43;6.23;;;3.10;;
8013;SDS011;4052;50.500;8.660;2023-02-13T08:09:13;6.87;;;3.43;;
8013;SDS011;4052;50.500;8.660;2023-02-13T08:12:01;6.00;;;3.33;;
8013;SDS011;4052;50.500;8.660;2023-02-13T08:14:27;4.37;;;2.70;;
8013;SDS011;4052;50.500;8.660;2023-02-13T08:16:53;7.03;;;3.67;;
8013;SDS011;4052;50.500;8.660;2023-02-13T08:19:20;11.63;;;4.93;;
8013;SDS011;4052;50.500;8.660;2023-02-13T08:21:46;4.70;;;3.97;;
8013;SDS011;4052;50.500;8.660;2023-02-13T08:24:12;5.57;;;4.17;;
8013;SDS011;4052;50.500;8.660;2023-02-13T08:26:39;7.73;;;4.33;;
8013;SDS011;4052;50.500;8.660;2023-02-13T08:29:06;10.60;;;5.77;;
8013;SDS011;4052;50.500;8.660;2023-02-13T08:31:32;7.87;;;4.47;;
8013;SDS011;4052;50.500;8.660;2023-02-13T08:33:58;7.20;;;4.63;;
8013;SDS011;4052;50.500;8.660;2023-02-13T08:36:24;7.10;;;3.57;;
8013;SDS011;4052;50.500;8.660;2023-02-13T08:38:51;6.43;;;3.77;;
8013;SDS011;4052;50.500;8.660;2023-02-13T08:41:17;8.20;;;4.90;;
8013;SDS011;4052;50.500;8.660;2023-02-13T08:43:44;10.97;;;5.57;;
8013;SDS011;4052;50.500;8.660;2023-02-13T08:46:11;9.67;;;4.53;;
8013;SDS011;4052;50.500;8.660;2023-02-13T08:48:37;7.20;;;4.13;;
8013;SDS011;4052;50.500;8.660;2023-02-13T08:51:06;5.80;;;3.23;;
8013;SDS011;4052;50.500;8.660;2023-02-13T08:53:33;5.83;;;4.20;;
8013;SDS011;4052;50.500;8.660;2023-02-13T08:55:59;12.47;;;5.50;;
8013;SDS011;4052;50.500;8.660;2023-02-13T08:58:25;12.07;;;4.57;;
8013;SDS011;4052;50.500;8.660;2023-02-13T09:00:52;12.10;;;4.83;;
8013;SDS011;4052;50.500;8.660;2023-02-13T09:03:18;8.37;;;4.40;;
8013;SDS011;4052;50.500;8.660;2023-02-13T09:05:44;10.93;;;4.53;;
8013;SDS011;4052;50.500;8.660;2023-02-13T09:08:12;8.13;;;4.73;;
8013;SDS011;4052;50.500;8.660;2023-02-13T09:10:38;8.57;;;4.50;;
8013;SDS011;4052;50.500;8.660;2023-02-13T09:13:05;7.20;;;3.63;;
8013;SDS011;4052;50.500;8.660;2023-02-13T09:15:31;6.57;;;4.00;;
8013;SDS011;4052;50.500;8.660;2023-02-13T09:17:58;5.37;;;3.47;;
8013;SDS011;4052;50.500;8.660;2023-02-13T09:20:24;4.47;;;2.73;;
8013;SDS011;4052;50.500;8.660;2023-02-13T09:22:50;4.97;;;3.37;;
8013;SDS011;4052;50.500;8.660;2023-02-13T09:25:17;3.83;;;2.67;;
8013;SDS011;4052;50.500;8.660;2023-02-13T09:27:44;4.83;;;2.70;;
8013;SDS011;4052;50.500;8.660;2023-02-13T09:30:10;4.80;;;2.80;;
8013;SDS011;4052;50.500;8.660;2023-02-13T09:32:40;8.87;;;3.83;;
8013;SDS011;4052;50.500;8.660;2023-02-13T09:38:09;8.80;;;4.00;;
8013;SDS011;4052;50.500;8.660;2023-02-13T09:40:42;4.90;;;2.40;;
8013;SDS011;4052;50.500;8.660;2023-02-13T09:43:15;5.97;;;2.90;;
8013;SDS011;4052;50.500;8.660;2023-02-13T09:45:42;5.73;;;2.93;;
8013;SDS011;4052;50.500;8.660;2023-02-13T09:48:13;5.50;;;3.47;;
8013;SDS011;4052;50.500;8.660;2023-02-13T09:50:40;5.13;;;3.37;;
8013;SDS011;4052;50.500;8.660;2023-02-13T09:53:08;4.93;;;3.20;;
8013;SDS011;4052;50.500;8.660;2023-02-13T09:58:40;3.53;;;2.23;;
8013;SDS011;4052;50.500;8.660;2023-02-13T10:01:25;5.53;;;1.83;;
8013;SDS011;4052;50.500;8.660;2023-02-13T10:06:52;4.87;;;2.80;;
8013;SDS011;4052;50.500;8.660;2023-02-13T10:22:33;4.07;;;2.80;;
8013;SDS011;4052;50.500;8.660;2023-02-13T10:24:39;3.73;;;2.90;;
8013;SDS011;4052;50.500;8.660;2023-02-13T10:27:18;4.63;;;2.77;;
8013;SDS011;4052;50.500;8.660;2023-02-13T10:30:13;3.67;;;2.63;;
8013;SDS011;4052;50.500;8.660;2023-02-13T10:35:35;4.70;;;2.23;;
8013;SDS011;4052;50.500;8.660;2023-02-13T10:38:03;6.27;;;3.30;;
8013;SDS011;4052;50.500;8.660;2023-02-13T10:40:37;4.00;;;2.80;;
8013;SDS011;4052;50.500;8.660;2023-02-13T10:53:25;3.67;;;2.50;;
8013;SDS011;4052;50.500;8.660;2023-02-13T11:00:54;4.07;;;3.10;;
8013;SDS011;4052;50.500;8.660;2023-02-13T11:03:22;4.67;;;2.47;;
8013;SDS011;4052;50.500;8.660;2023-02-13T11:05:48;6.57;;;2.90;;
8013;SDS011;4052;50.500;8.660;2023-02-13T11:08:29;4.67;;;2.37;;
8013;SDS011;4052;50.500;8.660;2023-02-13T11:10:56;3.17;;;2.87;;
8013;SDS011;4052;50.500;8.660;2023-02-13T11:13:24;3.80;;;2.20;;
8013;SDS011;4052;50.500;8.660;2023-02-13T11:16:04;3.57;;;2.93;;
8013;SDS011;4052;50.500;8.660;2023-02-13T11:18:35;2.63;;;2.03;;
8013;SDS011;4052;50.500;8.660;2023-02-13T11:26:02;3.37;;;2.90;;
8013;SDS011;4052;50.500;8.660;2023-02-13T11:28:29;7.00;;;3.20;;
8013;SDS011;4052;50.500;8.660;2023-02-13T11:31:20;4.00;;;2.63;;
8013;SDS011;4052;50.500;8.660;2023-02-13T11:33:43;4.30;;;3.30;;
8013;SDS011;4052;50.500;8.660;2023-02-13T11:36:14;2.93;;;2.30;;
8013;SDS011;4052;50.500;8.660;2023-02-13T11:38:40;4.20;;;2.07;;
8013;SDS011;4052;50.500;8.660;2023-02-13T11:41:13;3.10;;;1.90;;
8013;SDS011;4052;50.500;8.660;2023-02-13T11:43:43;4.50;;;2.87;;
8013;SDS011;4052;50.500;8.660;2023-02-13T11:54:02;4.83;;;2.87;;
8013;SDS011;4052;50.500;8.660;2023-02-13T11:56:28;5.67;;;2.97;;
8013;SDS011;4052;50.500;8.660;2023-02-13T11:59:11;2.90;;;2.17;;
8013;SDS011;4052;50.500;8.660;2023-02-13T12:01:38;3.97;;;2.30;;
8013;SDS011;4052;50.500;8.660;2023-02-13T12:04:06;6.63;;;4.00;;
8013;SDS011;4052;50.500;8.660;2023-02-13T12:06:40;2.83;;;2.37;;
8013;SDS011;4052;50.500;8.660;2023-02-13T12:09:10;3.20;;;2.53;;
8013;SDS011;4052;50.500;8.660;2023-02-13T12:14:03;5.80;;;2.63;;
8013;SDS011;4052;50.500;8.660;2023-02-13T12:18:58;7.33;;;2.80;;
8013;SDS011;4052;50.500;8.660;2023-02-13T12:26:40;2.47;;;1.80;;
8013;SDS011;4052;50.500;8.660;2023-02-13T12:31:42;5.43;;;2.50;;
8013;SDS011;4052;50.500;8.660;2023-02-13T12:39:30;3.70;;;2.47;;
8013;SDS011;4052;50.500;8.660;2023-02-13T12:47:23;4.13;;;2.93;;
8013;SDS011;4052;50.500;8.660;2023-02-13T13:06:20;4.33;;;2.20;;
8013;SDS011;4052;50.500;8.660;2023-02-13T13:09:04;2.80;;;2.33;;
8013;SDS011;4052;50.500;8.660;2023-02-13T13:22:11;2.33;;;2.07;;
8013;SDS011;4052;50.500;8.660;2023-02-13T13:24:51;3.10;;;2.33;;
8013;SDS011;4052;50.500;8.660;2023-02-13T13:27:19;1.73;;;1.60;;
8013;SDS011;4052;50.500;8.660;2023-02-13T13:29:50;3.07;;;1.73;;
8013;SDS011;4052;50.500;8.660;2023-02-13T13:32:17;4.23;;;1.77;;
8013;SDS011;4052;50.500;8.660;2023-02-13T13:34:45;3.00;;;2.00;;
8013;SDS011;4052;50.500;8.660;2023-02-13T13:37:14;3.37;;;2.63;;
8013;SDS011;4052;50.500;8.660;2023-02-13T13:39:54;3.17;;;2.40;;
8013;SDS011;4052;50.500;8.660;2023-02-13T13:50:28;2.30;;;1.97;;
8013;SDS011;4052;50.500;8.660;2023-02-13T13:53:11;3.87;;;2.23;;
8013;SDS011;4052;50.500;8.660;2023-02-13T13:58:21;3.20;;;2.10;;
8013;SDS011;4052;50.500;8.660;2023-02-13T14:01:14;2.37;;;2.10;;
8013;SDS011;4052;50.500;8.660;2023-02-13T14:03:34;2.30;;;1.70;;
8013;SDS011;4052;50.500;8.660;2023-02-13T14:06:02;2.10;;;1.90;;
8013;SDS011;4052;50.500;8.660;2023-02-13T14:11:04;2.03;;;1.70;;
8013;SDS011;4052;50.500;8.660;2023-02-13T14:13:33;2.87;;;2.00;;
8013;SDS011;4052;50.500;8.660;2023-02-13T14:16:00;3.23;;;1.97;;
8013;SDS011;4052;50.500;8.660;2023-02-13T14:18:26;3.27;;;2.97;;
8013;SDS011;4052;50.500;8.660;2023-02-13T14:23:29;2.47;;;2.03;;
8013;SDS011;4052;50.500;8.660;2023-02-13T14:31:32;3.73;;;1.77;;
8013;SDS011;4052;50.500;8.660;2023-02-13T14:34:03;1.97;;;1.83;;
8013;SDS011;4052;50.500;8.660;2023-02-13T14:36:33;4.03;;;2.30;;
8013;SDS011;4052;50.500;8.660;2023-02-13T14:39:00;2.47;;;1.87;;
8013;SDS011;4052;50.500;8.660;2023-02-13T14:44:35;3.47;;;2.13;;
8013;SDS011;4052;50.500;8.660;2023-02-13T14:47:00;2.23;;;1.93;;
8013;SDS011;4052;50.500;8.660;2023-02-13T14:49:28;3.13;;;2.20;;
8013;SDS011;4052;50.500;8.660;2023-02-13T14:51:56;2.67;;;1.93;;
8013;SDS011;4052;50.500;8.660;2023-02-13T14:54:30;2.93;;;1.80;;
8013;SDS011;4052;50.500;8.660;2023-02-13T14:57:09;4.03;;;2.00;;
8013;SDS011;4052;50.500;8.660;2023-02-13T14:59:41;1.93;;;1.80;;
8013;SDS011;4052;50.500;8.660;2023-02-13T15:02:13;3.33;;;1.93;;
8013;SDS011;4052;50.500;8.660;2023-02-13T15:04:41;2.40;;;1.90;;
8013;SDS011;4052;50.500;8.660;2023-02-13T15:07:21;2.37;;;1.60;;
8013;SDS011;4052;50.500;8.660;2023-02-13T15:09:52;3.13;;;2.00;;
8013;SDS011;4052;50.500;8.660;2023-02-13T15:12:31;2.37;;;1.97;;
8013;SDS011;4052;50.500;8.660;2023-02-13T15:14:57;3.70;;;2.10;;
8013;SDS011;4052;50.500;8.660;2023-02-13T15:17:29;3.03;;;1.97;;
8013;SDS011;4052;50.500;8.660;2023-02-13T15:20:36;2.00;;;1.77;;
8013;SDS011;4052;50.500;8.660;2023-02-13T15:22:54;3.40;;;2.07;;
8013;SDS011;4052;50.500;8.660;2023-02-13T15:25:23;3.43;;;2.10;;
8013;SDS011;4052;50.500;8.660;2023-02-13T15:27:50;2.93;;;1.80;;
8013;SDS011;4052;50.500;8.660;2023-02-13T15:30:23;3.63;;;1.50;;
8013;SDS011;4052;50.500;8.660;2023-02-13T15:32:57;1.30;;;1.20;;
8013;SDS011;4052;50.500;8.660;2023-02-13T15:35:24;3.70;;;2.17;;
8013;SDS011;4052;50.500;8.660;2023-02-13T15:37:51;2.53;;;1.27;;
8013;SDS011;4052;50.500;8.660;2023-02-13T15:40:29;3.43;;;1.80;;
8013;SDS011;4052;50.500;8.660;2023-02-13T15:42:56;3.93;;;2.33;;
8013;SDS011;4052;50.500;8.660;2023-02-13T15:45:23;2.37;;;2.10;;
8013;SDS011;4052;50.500;8.660;2023-02-13T15:47:50;4.20;;;2.00;;
8013;SDS011;4052;50.500;8.660;2023-02-13T15:50:27;2.50;;;1.33;;
8013;SDS011;4052;50.500;8.660;2023-02-13T15:52:54;1.77;;;1.50;;
8013;SDS011;4052;50.500;8.660;2023-02-13T15:55:22;4.17;;;1.73;;
8013;SDS011;4052;50.500;8.660;2023-02-13T15:57:49;1.53;;;1.43;;
8013;SDS011;4052;50.500;8.660;2023-02-13T16:00:19;2.30;;;1.70;;
8013;SDS011;4052;50.500;8.660;2023-02-13T16:02:48;1.90;;;1.70;;
8013;SDS011;4052;50.500;8.660;2023-02-13T16:05:15;3.57;;;2.07;;
8013;SDS011;4052;50.500;8.660;2023-02-13T16:07:52;3.03;;;1.80;;
8013;SDS011;4052;50.500;8.660;2023-02-13T16:12:48;2.37;;;1.80;;
8013;SDS011;4052;50.500;8.660;2023-02-13T16:15:15;1.87;;;1.70;;
8013;SDS011;4052;50.500;8.660;2023-02-13T16:17:43;1.33;;;1.00;;
8013;SDS011;4052;50.500;8.660;2023-02-13T16:25:14;2.47;;;1.77;;
8013;SDS011;4052;50.500;8.660;2023-02-13T16:33:11;2.90;;;1.47;;
8013;SDS011;4052;50.500;8.660;2023-02-13T16:35:38;2.40;;;2.03;;
8013;SDS011;4052;50.500;8.660;2023-02-13T16:38:19;1.60;;;1.43;;
8013;SDS011;4052;50.500;8.660;2023-02-13T16:40:49;2.60;;;2.03;;
8013;SDS011;4052;50.500;8.660;2023-02-13T16:51:10;3.73;;;1.83;;
8013;SDS011;4052;50.500;8.660;2023-02-13T16:53:36;3.73;;;3.23;;
8013;SDS011;4052;50.500;8.660;2023-02-13T16:56:07;5.10;;;3.53;;
8013;SDS011;4052;50.500;8.660;2023-02-13T16:58:33;7.73;;;3.73;;
8013;SDS011;4052;50.500;8.660;2023-02-13T17:01:00;6.20;;;4.70;;
8013;SDS011;4052;50.500;8.660;2023-02-13T17:03:27;7.83;;;4.33;;
8013;SDS011;4052;50.500;8.660;2023-02-13T17:05:53;12.57;;;6.23;;
8013;SDS011;4052;50.500;8.660;2023-02-13T17:08:19;6.57;;;4.53;;
8013;SDS011;4052;50.500;8.660;2023-02-13T17:11:05;7.30;;;4.07;;
8013;SDS011;4052;50.500;8.660;2023-02-13T17:13:32;7.73;;;4.07;;
8013;SDS011;4052;50.500;8.660;2023-02-13T17:15:58;5.90;;;3.70;;
8013;SDS011;4052;50.500;8.660;2023-02-13T17:18:25;8.60;;;3.77;;
8013;SDS011;4052;50.500;8.660;2023-02-13T17:20:51;3.33;;;2.60;;
8013;SDS011;4052;50.500;8.660;2023-02-13T17:23:19;4.13;;;2.63;;
8013;SDS011;4052;50.500;8.660;2023-02-13T17:25:46;8.63;;;4.20;;
8013;SDS011;4052;50.500;8.660;2023-02-13T17:28:14;5.70;;;3.10;;
8013;SDS011;4052;50.500;8.660;2023-02-13T17:30:41;5.10;;;2.97;;
8013;SDS011;4052;50.500;8.660;2023-02-13T17:33:12;4.30;;;2.00;;
8013;SDS011;4052;50.500;8.660;2023-02-13T17:35:39;3.47;;;3.00;;
8013;SDS011;4052;50.500;8.660;2023-02-13T17:38:05;4.73;;;3.07;;
8013;SDS011;4052;50.500;8.660;2023-02-13T17:40:33;5.23;;;3.20;;
8013;SDS011;4052;50.500;8.660;2023-02-13T17:42:59;3.87;;;2.80;;
8013;SDS011;4052;50.500;8.660;2023-02-13T17:45:29;3.43;;;3.00;;
8013;SDS011;4052;50.500;8.660;2023-02-13T17:47:56;3.53;;;3.20;;
8013;SDS011;4052;50.500;8.660;2023-02-13T17:50:23;4.47;;;2.77;;
8013;SDS011;4052;50.500;8.660;2023-02-13T17:52:50;5.27;;;3.27;;
8013;SDS011;4052;50.500;8.660;2023-02-13T17:55:20;6.00;;;3.27;;
8013;SDS011;4052;50.500;8.660;2023-02-13T17:57:48;7.03;;;3.30;;
8013;SDS011;4052;50.500;8.660;2023-02-13T18:00:15;4.10;;;2.37;;
8013;SDS011;4052;50.500;8.660;2023-02-13T18:02:41;3.93;;;2.87;;
8013;SDS011;4052;50.500;8.660;2023-02-13T18:05:08;2.93;;;2.27;;
8013;SDS011;4052;50.500;8.660;2023-02-13T18:07:35;4.50;;;2.47;;
8013;SDS011;4052;50.500;8.660;2023-02-13T18:10:05;3.87;;;3.53;;
8013;SDS011;4052;50.500;8.660;2023-02-13T18:12:31;6.47;;;2.53;;
8013;SDS011;4052;50.500;8.660;2023-02-13T18:14:57;4.43;;;2.57;;
8013;SDS011;4052;50.500;8.660;2023-02-13T18:17:23;2.93;;;2.30;;
8013;SDS011;4052;50.500;8.660;2023-02-13T18:19:49;4.97;;;2.80;;
8013;SDS011;4052;50.500;8.660;2023-02-13T18:22:16;3.50;;;2.17;;
8013;SDS011;4052;50.500;8.660;2023-02-13T18:24:42;2.50;;;1.80;;
8013;SDS011;4052;50.500;8.660;2023-02-13T18:27:08;3.87;;;2.63;;
8013;SDS011;4052;50.500;8.660;2023-02-13T18:29:37;3.77;;;2.80;;